sensor_id;sensor_type;location;lat;lon;timestamp;P1;durP1;ratioP1;P2;durP2;ratioP2
15454;SDS011;21057;51.024;7.540;2023-04-01T00:01:36;29.40;;;27.60;;
15454;SDS011;21057;51.024;7.540;2023-04-01T00:04:12;28.87;;;27.27;;
15454;SDS011;21057;51.024;7.540;2023-04-01T00:06:38;29.10;;;27.40;;
15454;SDS011;21057;51.024;7.540;2023-04-01T00:09:07;28.90;;;27.27;;
15454;SDS011;21057;51.024;7.540;2023-04-01T00:11:33;28.30;;;26.70;;
15454;SDS011;21057;51.024;7.540;2023-04-01T00:14:00;30.37;;;28.47;;
15454;SDS011;21057;51.024;7.540;2023-04-01T00:16:33;29.53;;;27.60;;
15454;SDS011;21057;51.024;7.540;2023-04-01T00:19:00;28.57;;;26.87;;
15454;SDS011;21057;51.024;7.540;2023-04-01T00:21:27;28.20;;;26.40;;
15454;SDS011;21057;51.024;7.540;2023-04-01T00:26:44;27.00;;;25.50;;
15454;SDS011;21057;51.024;7.540;2023-04-01T00:29:14;26.80;;;25.27;;
15454;SDS011;21057;51.024;7.540;2023-04-01T00:31:47;26.57;;;25.07;;
15454;SDS011;21057;51.024;7.540;2023-04-01T00:34:14;27.30;;;25.77;;
15454;SDS011;21057;51.024;7.540;2023-04-01T00:36:41;26.47;;;24.97;;
15454;SDS011;21057;51.024;7.540;2023-04-01T00:39:09;26.67;;;25.07;;
15454;SDS011;21057;51.024;7.540;2023-04-01T00:41:36;27.00;;;25.30;;
15454;SDS011;21057;51.024;7.540;2023-04-01T00:44:15;28.67;;;26.93;;
15454;SDS011;21057;51.024;7.540;2023-04-01T00:52:18;29.17;;;27.10;;
15454;SDS011;21057;51.024;7.540;2023-04-01T00:54:58;29.37;;;26.80;;
15454;SDS011;21057;51.024;7.540;2023-04-01T00:57:29;28.50;;;26.90;;
15454;SDS011;21057;51.024;7.540;2023-04-01T01:00:03;28.13;;;26.53;;
15454;SDS011;21057;51.024;7.540;2023-04-01T01:02:32;27.90;;;26.20;;
15454;SDS011;21057;51.024;7.540;2023-04-01T01:05:00;28.90;;;27.10;;
15454;SDS011;21057;51.024;7.540;2023-04-01T01:07:31;28.57;;;26.97;;
15454;SDS011;21057;51.024;7.540;2023-04-01T01:10:05;29.03;;;27.20;;
15454;SDS011;21057;51.024;7.540;2023-04-01T01:12:39;28.07;;;26.47;;
15454;SDS011;21057;51.024;7.540;2023-04-01T01:15:24;28.50;;;26.70;;
15454;SDS011;21057;51.024;7.540;2023-04-01T01:17:56;27.50;;;25.90;;
15454;SDS011;21057;51.024;7.540;2023-04-01T01:26:53;28.80;;;26.70;;
15454;SDS011;21057;51.024;7.540;2023-04-01T01:29:39;26.97;;;25.47;;
15454;SDS011;21057;51.024;7.540;2023-04-01T01:37:49;28.43;;;26.63;;
15454;SDS011;21057;51.024;7.540;2023-04-01T01:40:20;28.27;;;26.27;;
15454;SDS011;21057;51.024;7.540;2023-04-01T01:42:48;27.00;;;25.50;;
15454;SDS011;21057;51.024;7.540;2023-04-01T01:45:20;27.40;;;25.80;;
15454;SDS011;21057;51.024;7.540;2023-04-01T01:47:56;28.30;;;26.60;;
15454;SDS011;21057;51.024;7.540;2023-04-01T01:50:26;27.77;;;26.17;;
15454;SDS011;21057;51.024;7.540;2023-04-01T01:53:01;28.53;;;26.93;;
15454;SDS011;21057;51.024;7.540;2023-04-01T01:55:32;28.03;;;26.00;;
15454;SDS011;21057;51.024;7.540;2023-04-01T01:58:02;29.33;;;27.53;;
15454;SDS011;21057;51.024;7.540;2023-04-01T02:00:33;28.10;;;26.50;;
15454;SDS011;21057;51.024;7.540;2023-04-01T02:03:02;28.57;;;26.97;;
15454;SDS011;21057;51.024;7.540;2023-04-01T02:05:32;29.57;;;27.73;;
15454;SDS011;21057;51.024;7.540;2023-04-01T02:08:06;28.60;;;26.70;;
15454;SDS011;21057;51.024;7.540;2023-04-01T02:10:40;28.57;;;26.97;;
15454;SDS011;21057;51.024;7.540;2023-04-01T02:13:21;28.40;;;26.70;;
15454;SDS011;21057;51.024;7.540;2023-04-01T02:15:53;28.77;;;27.10;;
15454;SDS011;21057;51.024;7.540;2023-04-01T02:18:26;29.23;;;27.43;;
15454;SDS011;21057;51.024;7.540;2023-04-01T02:21:03;29.20;;;27.50;;
15454;SDS011;21057;51.024;7.540;2023-04-01T02:23:32;29.30;;;27.50;;
15454;SDS011;21057;51.024;7.540;2023-04-01T02:26:00;29.00;;;27.13;;
15454;SDS011;21057;51.024;7.540;2023-04-01T02:28:28;28.20;;;26.60;;
15454;SDS011;21057;51.024;7.540;2023-04-01T02:30:57;28.80;;;27.20;;
15454;SDS011;21057;51.024;7.540;2023-04-01T02:33:27;29.47;;;27.57;;
15454;SDS011;21057;51.024;7.540;2023-04-01T02:35:55;28.73;;;27.13;;
15454;SDS011;21057;51.024;7.540;2023-04-01T02:38:30;27.90;;;26.30;;
15454;SDS011;21057;51.024;7.540;2023-04-01T02:40:58;27.83;;;26.23;;
15454;SDS011;21057;51.024;7.540;2023-04-01T02:43:35;27.17;;;25.67;;
15454;SDS011;21057;51.024;7.540;2023-04-01T02:48:52;28.03;;;26.43;;
15454;SDS011;21057;51.024;7.540;2023-04-01T02:51:19;28.67;;;26.87;;
15454;SDS011;21057;51.024;7.540;2023-04-01T02:53:47;28.10;;;26.50;;
15454;SDS011;21057;51.024;7.540;2023-04-01T02:56:15;28.83;;;27.17;;
15454;SDS011;21057;51.024;7.540;2023-04-01T02:58:43;28.10;;;26.50;;
15454;SDS011;21057;51.024;7.540;2023-04-01T03:01:10;28.17;;;26.57;;
15454;SDS011;21057;51.024;7.540;2023-04-01T03:03:37;27.97;;;26.27;;
15454;SDS011;21057;51.024;7.540;2023-04-01T03:06:04;27.90;;;26.30;;
15454;SDS011;21057;51.024;7.540;2023-04-01T03:08:33;29.67;;;27.97;;
15454;SDS011;21057;51.024;7.540;2023-04-01T03:11:01;28.83;;;27.03;;
15454;SDS011;21057;51.024;7.540;2023-04-01T03:13:28;28.90;;;27.23;;
15454;SDS011;21057;51.024;7.540;2023-04-01T03:16:04;29.80;;;28.10;;
15454;SDS011;21057;51.024;7.540;2023-04-01T03:18:32;28.40;;;26.70;;
15454;SDS011;21057;51.024;7.540;2023-04-01T03:21:11;29.33;;;27.73;;
15454;SDS011;21057;51.024;7.540;2023-04-01T03:23:39;28.80;;;27.20;;
15454;SDS011;21057;51.024;7.540;2023-04-01T03:26:08;30.70;;;29.00;;
15454;SDS011;21057;51.024;7.540;2023-04-01T03:28:36;29.37;;;27.77;;
15454;SDS011;21057;51.024;7.540;2023-04-01T03:31:03;30.47;;;28.37;;
15454;SDS011;21057;51.024;7.540;2023-04-01T03:33:32;28.67;;;27.07;;
15454;SDS011;21057;51.024;7.540;2023-04-01T03:36:04;27.77;;;26.10;;
15454;SDS011;21057;51.024;7.540;2023-04-01T03:38:32;27.43;;;25.90;;
15454;SDS011;21057;51.024;7.540;2023-04-01T03:40:59;27.70;;;26.10;;
15454;SDS011;21057;51.024;7.540;2023-04-01T03:43:28;27.57;;;25.97;;
15454;SDS011;21057;51.024;7.540;2023-04-01T03:45:55;29.50;;;27.80;;
15454;SDS011;21057;51.024;7.540;2023-04-01T03:50:53;28.17;;;26.57;;
15454;SDS011;21057;51.024;7.540;2023-04-01T03:53:21;28.23;;;26.53;;
15454;SDS011;21057;51.024;7.540;2023-04-01T03:55:48;28.50;;;26.90;;
15454;SDS011;21057;51.024;7.540;2023-04-01T03:58:16;27.83;;;26.23;;
15454;SDS011;21057;51.024;7.540;2023-04-01T04:00:44;28.53;;;26.80;;
15454;SDS011;21057;51.024;7.540;2023-04-01T04:03:11;29.53;;;27.90;;
15454;SDS011;21057;51.024;7.540;2023-04-01T04:05:45;29.13;;;27.23;;
15454;SDS011;21057;51.024;7.540;2023-04-01T04:08:13;29.60;;;27.90;;
15454;SDS011;21057;51.024;7.540;2023-04-01T04:10:41;29.10;;;27.50;;
15454;SDS011;21057;51.024;7.540;2023-04-01T04:13:09;29.67;;;27.87;;
15454;SDS011;21057;51.024;7.540;2023-04-01T04:15:37;28.17;;;26.57;;
15454;SDS011;21057;51.024;7.540;2023-04-01T04:18:06;28.40;;;26.60;;
15454;SDS011;21057;51.024;7.540;2023-04-01T04:20:33;28.90;;;27.20;;
15454;SDS011;21057;51.024;7.540;2023-04-01T04:23:00;30.03;;;28.23;;
15454;SDS011;21057;51.024;7.540;2023-04-01T04:25:27;28.80;;;27.00;;
15454;SDS011;21057;51.024;7.540;2023-04-01T04:27:53;28.50;;;26.80;;
15454;SDS011;21057;51.024;7.540;2023-04-01T04:30:20;28.50;;;26.60;;
15454;SDS011;21057;51.024;7.540;2023-04-01T04:32:48;27.50;;;25.90;;
15454;SDS011;21057;51.024;7.540;2023-04-01T04:35:16;27.63;;;25.90;;
15454;SDS011;21057;51.024;7.540;2023-04-01T04:37:44;27.90;;;26.20;;
15454;SDS011;21057;51.024;7.540;2023-04-01T04:40:11;28.33;;;26.73;;
15454;SDS011;21057;51.024;7.540;2023-04-01T04:42:38;28.20;;;26.27;;
15454;SDS011;21057;51.024;7.540;2023-04-01T04:45:05;26.90;;;25.33;;
15454;SDS011;21057;51.024;7.540;2023-04-01T04:47:32;26.30;;;24.80;;
15454;SDS011;21057;51.024;7.540;2023-04-01T04:49:59;26.10;;;24.60;;
15454;SDS011;21057;51.024;7.540;2023-04-01T04:52:27;26.77;;;25.17;;
15454;SDS011;21057;51.024;7.540;2023-04-01T04:57:53;28.70;;;27.00;;
15454;SDS011;21057;51.024;7.540;2023-04-01T05:00:20;29.60;;;27.80;;
15454;SDS011;21057;51.024;7.540;2023-04-01T05:02:47;29.80;;;28.10;;
15454;SDS011;21057;51.024;7.540;2023-04-01T05:05:14;28.00;;;26.30;;
15454;SDS011;21057;51.024;7.540;2023-04-01T05:07:44;28.30;;;26.60;;
15454;SDS011;21057;51.024;7.540;2023-04-01T05:10:11;28.03;;;26.43;;
15454;SDS011;21057;51.024;7.540;2023-04-01T05:12:38;28.07;;;26.37;;
15454;SDS011;21057;51.024;7.540;2023-04-01T05:15:05;28.70;;;27.03;;
15454;SDS011;21057;51.024;7.540;2023-04-01T05:17:34;28.33;;;26.73;;
15454;SDS011;21057;51.024;7.540;2023-04-01T05:20:01;27.23;;;25.63;;
15454;SDS011;21057;51.024;7.540;2023-04-01T05:22:28;29.03;;;27.33;;
15454;SDS011;21057;51.024;7.540;2023-04-01T05:24:56;28.57;;;26.90;;
15454;SDS011;21057;51.024;7.540;2023-04-01T05:27:24;28.30;;;26.70;;
15454;SDS011;21057;51.024;7.540;2023-04-01T05:29:51;28.57;;;26.80;;
15454;SDS011;21057;51.024;7.540;2023-04-01T05:32:19;29.03;;;27.33;;
15454;SDS011;21057;51.024;7.540;2023-04-01T05:34:46;28.10;;;26.50;;
15454;SDS011;21057;51.024;7.540;2023-04-01T05:37:12;27.60;;;26.00;;
15454;SDS011;21057;51.024;7.540;2023-04-01T05:39:39;27.13;;;25.53;;
15454;SDS011;21057;51.024;7.540;2023-04-01T05:42:08;28.57;;;26.67;;
15454;SDS011;21057;51.024;7.540;2023-04-01T05:44:35;27.63;;;26.03;;
15454;SDS011;21057;51.024;7.540;2023-04-01T05:47:02;27.30;;;25.70;;
15454;SDS011;21057;51.024;7.540;2023-04-01T05:49:30;28.20;;;26.60;;
15454;SDS011;21057;51.024;7.540;2023-04-01T05:51:56;27.90;;;26.20;;
15454;SDS011;21057;51.024;7.540;2023-04-01T05:54:23;27.57;;;25.90;;
15454;SDS011;21057;51.024;7.540;2023-04-01T05:56:54;26.73;;;25.13;;
15454;SDS011;21057;51.024;7.540;2023-04-01T05:59:22;27.40;;;25.80;;
15454;SDS011;21057;51.024;7.540;2023-04-01T06:01:49;26.80;;;25.20;;
15454;SDS011;21057;51.024;7.540;2023-04-01T06:04:17;27.00;;;25.40;;
15454;SDS011;21057;51.024;7.540;2023-04-01T06:06:44;27.10;;;25.50;;
15454;SDS011;21057;51.024;7.540;2023-04-01T06:09:13;28.70;;;27.00;;
15454;SDS011;21057;51.024;7.540;2023-04-01T06:11:45;29.33;;;27.73;;
15454;SDS011;21057;51.024;7.540;2023-04-01T06:14:26;28.57;;;26.97;;
15454;SDS011;21057;51.024;7.540;2023-04-01T06:17:04;28.63;;;27.00;;
15454;SDS011;21057;51.024;7.540;2023-04-01T06:19:43;29.97;;;28.27;;
15454;SDS011;21057;51.024;7.540;2023-04-01T06:22:22;29.77;;;28.07;;
15454;SDS011;21057;51.024;7.540;2023-04-01T06:25:10;30.10;;;28.07;;
15454;SDS011;21057;51.024;7.540;2023-04-01T06:28:22;28.23;;;26.63;;
15454;SDS011;21057;51.024;7.540;2023-04-01T06:31:19;30.77;;;29.07;;
15454;SDS011;21057;51.024;7.540;2023-04-01T06:34:17;28.20;;;26.60;;
15454;SDS011;21057;51.024;7.540;2023-04-01T06:37:10;29.27;;;27.57;;
15454;SDS011;21057;51.024;7.540;2023-04-01T06:39:53;28.97;;;27.30;;
15454;SDS011;21057;51.024;7.540;2023-04-01T06:42:35;26.70;;;25.10;;
15454;SDS011;21057;51.024;7.540;2023-04-01T06:45:17;26.97;;;25.07;;
15454;SDS011;21057;51.024;7.540;2023-04-01T06:47:58;27.53;;;25.83;;
15454;SDS011;21057;51.024;7.540;2023-04-01T06:50:49;27.20;;;25.50;;
15454;SDS011;21057;51.024;7.540;2023-04-01T06:53:23;27.73;;;26.13;;
15454;SDS011;21057;51.024;7.540;2023-04-01T06:56:00;27.20;;;25.50;;
15454;SDS011;21057;51.024;7.540;2023-04-01T06:58:33;27.20;;;25.50;;
15454;SDS011;21057;51.024;7.540;2023-04-01T07:01:03;27.10;;;25.40;;
15454;SDS011;21057;51.024;7.540;2023-04-01T07:03:36;26.77;;;25.10;;
15454;SDS011;21057;51.024;7.540;2023-04-01T07:06:09;26.70;;;25.00;;
15454;SDS011;21057;51.024;7.540;2023-04-01T07:08:40;26.73;;;25.13;;
15454;SDS011;21057;51.024;7.540;2023-04-01T07:11:10;26.73;;;25.13;;
15454;SDS011;21057;51.024;7.540;2023-04-01T07:13:43;27.40;;;25.70;;
15454;SDS011;21057;51.024;7.540;2023-04-01T07:16:15;27.27;;;25.60;;
15454;SDS011;21057;51.024;7.540;2023-04-01T07:18:47;26.60;;;25.00;;
15454;SDS011;21057;51.024;7.540;2023-04-01T07:21:23;29.80;;;28.10;;
15454;SDS011;21057;51.024;7.540;2023-04-01T07:23:56;29.77;;;28.03;;
15454;SDS011;21057;51.024;7.540;2023-04-01T07:26:33;28.67;;;27.00;;
15454;SDS011;21057;51.024;7.540;2023-04-01T07:29:05;29.57;;;27.87;;
15454;SDS011;21057;51.024;7.540;2023-04-01T07:31:45;28.97;;;27.10;;
15454;SDS011;21057;51.024;7.540;2023-04-01T07:34:30;29.10;;;27.40;;
15454;SDS011;21057;51.024;7.540;2023-04-01T07:37:06;31.50;;;29.63;;
15454;SDS011;21057;51.024;7.540;2023-04-01T07:39:42;29.73;;;27.83;;
15454;SDS011;21057;51.024;7.540;2023-04-01T07:42:21;29.40;;;27.70;;
15454;SDS011;21057;51.024;7.540;2023-04-01T07:45:05;29.37;;;27.67;;
15454;SDS011;21057;51.024;7.540;2023-04-01T07:47:47;30.73;;;28.93;;
15454;SDS011;21057;51.024;7.540;2023-04-01T07:50:27;28.03;;;26.23;;
15454;SDS011;21057;51.024;7.540;2023-04-01T07:53:00;27.47;;;25.77;;
15454;SDS011;21057;51.024;7.540;2023-04-01T07:55:36;29.50;;;27.80;;
15454;SDS011;21057;51.024;7.540;2023-04-01T07:58:10;29.83;;;28.03;;
15454;SDS011;21057;51.024;7.540;2023-04-01T08:00:45;30.70;;;28.90;;
15454;SDS011;21057;51.024;7.540;2023-04-01T08:03:22;28.73;;;27.03;;
15454;SDS011;21057;51.024;7.540;2023-04-01T08:06:07;27.90;;;26.20;;
15454;SDS011;21057;51.024;7.540;2023-04-01T08:08:42;27.17;;;25.47;;
15454;SDS011;21057;51.024;7.540;2023-04-01T08:11:27;26.00;;;24.40;;
15454;SDS011;21057;51.024;7.540;2023-04-01T08:14:04;28.50;;;26.70;;
15454;SDS011;21057;51.024;7.540;2023-04-01T08:16:37;26.60;;;24.90;;
15454;SDS011;21057;51.024;7.540;2023-04-01T08:19:15;28.40;;;26.70;;
15454;SDS011;21057;51.024;7.540;2023-04-01T08:21:51;28.63;;;26.83;;
15454;SDS011;21057;51.024;7.540;2023-04-01T08:24:23;29.20;;;27.50;;
15454;SDS011;21057;51.024;7.540;2023-04-01T08:29:31;31.57;;;29.67;;
15454;SDS011;21057;51.024;7.540;2023-04-01T08:32:08;31.87;;;29.97;;
15454;SDS011;21057;51.024;7.540;2023-04-01T08:34:39;30.27;;;28.47;;
15454;SDS011;21057;51.024;7.540;2023-04-01T08:37:09;31.63;;;29.73;;
15454;SDS011;21057;51.024;7.540;2023-04-01T08:39:49;29.20;;;27.30;;
15454;SDS011;21057;51.024;7.540;2023-04-01T08:45:20;30.30;;;28.30;;
15454;SDS011;21057;51.024;7.540;2023-04-01T08:48:06;31.23;;;29.33;;
15454;SDS011;21057;51.024;7.540;2023-04-01T08:51:10;32.93;;;30.93;;
15454;SDS011;21057;51.024;7.540;2023-04-01T08:54:03;31.93;;;29.93;;
15454;SDS011;21057;51.024;7.540;2023-04-01T08:56:47;30.70;;;28.80;;
15454;SDS011;21057;51.024;7.540;2023-04-01T08:59:26;31.70;;;29.80;;
15454;SDS011;21057;51.024;7.540;2023-04-01T09:05:36;31.40;;;29.50;;
15454;SDS011;21057;51.024;7.540;2023-04-01T09:08:29;30.53;;;28.70;;
15454;SDS011;21057;51.024;7.540;2023-04-01T09:11:09;30.43;;;28.50;;
15454;SDS011;21057;51.024;7.540;2023-04-01T09:19:52;29.80;;;28.00;;
15454;SDS011;21057;51.024;7.540;2023-04-01T09:25:32;29.30;;;27.50;;
15454;SDS011;21057;51.024;7.540;2023-04-01T09:28:17;29.33;;;27.50;;
15454;SDS011;21057;51.024;7.540;2023-04-01T09:30:53;30.17;;;28.37;;
15454;SDS011;21057;51.024;7.540;2023-04-01T09:33:49;30.63;;;28.73;;
15454;SDS011;21057;51.024;7.540;2023-04-01T09:36:38;35.90;;;33.70;;
15454;SDS011;21057;51.024;7.540;2023-04-01T09:39:18;36.10;;;34.10;;
15454;SDS011;21057;51.024;7.540;2023-04-01T09:42:07;35.50;;;33.50;;
15454;SDS011;21057;51.024;7.540;2023-04-01T09:44:44;35.43;;;33.40;;
15454;SDS011;21057;51.024;7.540;2023-04-01T09:47:23;35.53;;;33.37;;
15454;SDS011;21057;51.024;7.540;2023-04-01T09:53:17;28.13;;;26.33;;
15454;SDS011;21057;51.024;7.540;2023-04-01T10:11:48;31.40;;;29.57;;
15454;SDS011;21057;51.024;7.540;2023-04-01T10:14:46;32.17;;;30.27;;
15454;SDS011;21057;51.024;7.540;2023-04-01T10:20:45;31.33;;;29.43;;
15454;SDS011;21057;51.024;7.540;2023-04-01T10:23:29;27.70;;;25.90;;
15454;SDS011;21057;51.024;7.540;2023-04-01T10:26:11;29.53;;;27.63;;
15454;SDS011;21057;51.024;7.540;2023-04-01T10:29:17;29.17;;;27.27;;
15454;SDS011;21057;51.024;7.540;2023-04-01T10:38:25;29.83;;;27.93;;
15454;SDS011;21057;51.024;7.540;2023-04-01T10:41:35;28.57;;;26.67;;
15454;SDS011;21057;51.024;7.540;2023-04-01T10:44:42;29.57;;;27.70;;
15454;SDS011;21057;51.024;7.540;2023-04-01T10:53:38;30.47;;;28.47;;
15454;SDS011;21057;51.024;7.540;2023-04-01T11:06:02;30.37;;;28.43;;
15454;SDS011;21057;51.024;7.540;2023-04-01T11:12:11;30.00;;;28.10;;
15454;SDS011;21057;51.024;7.540;2023-04-01T11:24:02;31.77;;;29.67;;
15454;SDS011;21057;51.024;7.540;2023-04-01T11:26:52;29.13;;;27.33;;
15454;SDS011;21057;51.024;7.540;2023-04-01T11:29:38;28.90;;;27.10;;
15454;SDS011;21057;51.024;7.540;2023-04-01T11:32:18;33.10;;;30.73;;
15454;SDS011;21057;51.024;7.540;2023-04-01T11:34:57;31.73;;;29.73;;
15454;SDS011;21057;51.024;7.540;2023-04-01T11:37:45;32.77;;;30.67;;
15454;SDS011;21057;51.024;7.540;2023-04-01T11:40:25;29.77;;;27.87;;
15454;SDS011;21057;51.024;7.540;2023-04-01T11:42:57;27.70;;;25.90;;
15454;SDS011;21057;51.024;7.540;2023-04-01T11:45:36;29.33;;;27.37;;
15454;SDS011;21057;51.024;7.540;2023-04-01T11:48:14;29.43;;;27.53;;
15454;SDS011;21057;51.024;7.540;2023-04-01T11:50:56;29.53;;;27.43;;
15454;SDS011;21057;51.024;7.540;2023-04-01T11:53:34;29.03;;;27.20;;
15454;SDS011;21057;51.024;7.540;2023-04-01T11:56:13;29.90;;;27.90;;
15454;SDS011;21057;51.024;7.540;2023-04-01T12:02:01;29.93;;;28.00;;
15454;SDS011;21057;51.024;7.540;2023-04-01T12:07:45;32.60;;;30.53;;
15454;SDS011;21057;51.024;7.540;2023-04-01T12:10:26;32.63;;;30.53;;
15454;SDS011;21057;51.024;7.540;2023-04-01T12:13:01;31.87;;;29.57;;
15454;SDS011;21057;51.024;7.540;2023-04-01T12:15:42;33.27;;;31.17;;
15454;SDS011;21057;51.024;7.540;2023-04-01T12:18:26;35.47;;;33.17;;
15454;SDS011;21057;51.024;7.540;2023-04-01T12:21:02;34.27;;;32.17;;
15454;SDS011;21057;51.024;7.540;2023-04-01T12:23:45;33.40;;;31.27;;
15454;SDS011;21057;51.024;7.540;2023-04-01T12:26:40;30.37;;;28.43;;
15454;SDS011;21057;51.024;7.540;2023-04-01T12:32:19;33.03;;;30.90;;
15454;SDS011;21057;51.024;7.540;2023-04-01T12:34:55;31.80;;;29.70;;
15454;SDS011;21057;51.024;7.540;2023-04-01T12:38:04;31.73;;;29.80;;
15454;SDS011;21057;51.024;7.540;2023-04-01T12:40:51;34.13;;;31.83;;
15454;SDS011;21057;51.024;7.540;2023-04-01T12:46:34;34.20;;;32.10;;
15454;SDS011;21057;51.024;7.540;2023-04-01T12:49:21;33.50;;;31.30;;
15454;SDS011;21057;51.024;7.540;2023-04-01T12:52:11;33.43;;;31.40;;
15454;SDS011;21057;51.024;7.540;2023-04-01T12:54:53;33.60;;;31.40;;
15454;SDS011;21057;51.024;7.540;2023-04-01T12:58:00;32.83;;;30.73;;
15454;SDS011;21057;51.024;7.540;2023-04-01T13:00:39;32.17;;;30.07;;
15454;SDS011;21057;51.024;7.540;2023-04-01T13:03:34;32.50;;;30.30;;
15454;SDS011;21057;51.024;7.540;2023-04-01T13:06:19;32.83;;;30.73;;
15454;SDS011;21057;51.024;7.540;2023-04-01T13:08:57;34.13;;;32.03;;
15454;SDS011;21057;51.024;7.540;2023-04-01T13:11:36;34.27;;;32.07;;
15454;SDS011;21057;51.024;7.540;2023-04-01T13:14:18;33.37;;;31.27;;
15454;SDS011;21057;51.024;7.540;2023-04-01T13:17:15;33.50;;;31.30;;
15454;SDS011;21057;51.024;7.540;2023-04-01T13:19:49;34.13;;;31.87;;
15454;SDS011;21057;51.024;7.540;2023-04-01T13:22:35;35.43;;;33.03;;
15454;SDS011;21057;51.024;7.540;2023-04-01T13:25:26;34.37;;;32.13;;
15454;SDS011;21057;51.024;7.540;2023-04-01T13:28:04;32.93;;;30.83;;
15454;SDS011;21057;51.024;7.540;2023-04-01T13:30:45;34.23;;;31.97;;
15454;SDS011;21057;51.024;7.540;2023-04-01T13:33:27;32.53;;;30.33;;
15454;SDS011;21057;51.024;7.540;2023-04-01T13:36:08;33.87;;;31.67;;
15454;SDS011;21057;51.024;7.540;2023-04-01T13:38:49;31.77;;;29.70;;
15454;SDS011;21057;51.024;7.540;2023-04-01T13:41:41;34.17;;;31.97;;
15454;SDS011;21057;51.024;7.540;2023-04-01T13:44:27;34.47;;;32.30;;
15454;SDS011;21057;51.024;7.540;2023-04-01T13:47:03;36.30;;;34.00;;
15454;SDS011;21057;51.024;7.540;2023-04-01T13:50:02;32.63;;;30.53;;
15454;SDS011;21057;51.024;7.540;2023-04-01T13:55:39;32.13;;;30.03;;
15454;SDS011;21057;51.024;7.540;2023-04-01T14:07:01;33.50;;;31.20;;
15454;SDS011;21057;51.024;7.540;2023-04-01T14:12:31;32.87;;;30.77;;
15454;SDS011;21057;51.024;7.540;2023-04-01T14:15:21;34.07;;;31.83;;
15454;SDS011;21057;51.024;7.540;2023-04-01T14:21:13;33.23;;;31.10;;
15454;SDS011;21057;51.024;7.540;2023-04-01T14:26:56;35.07;;;32.87;;
15454;SDS011;21057;51.024;7.540;2023-04-01T14:29:41;35.07;;;32.87;;
15454;SDS011;21057;51.024;7.540;2023-04-01T14:32:15;33.40;;;31.47;;
15454;SDS011;21057;51.024;7.540;2023-04-01T14:34:53;30.53;;;28.73;;
15454;SDS011;21057;51.024;7.540;2023-04-01T14:37:40;31.53;;;29.60;;
15454;SDS011;21057;51.024;7.540;2023-04-01T14:40:28;31.20;;;29.30;;
15454;SDS011;21057;51.024;7.540;2023-04-01T14:43:10;28.57;;;26.73;;
15454;SDS011;21057;51.024;7.540;2023-04-01T14:49:13;29.60;;;27.70;;
15454;SDS011;21057;51.024;7.540;2023-04-01T14:51:43;29.83;;;27.93;;
15454;SDS011;21057;51.024;7.540;2023-04-01T14:54:13;30.03;;;28.13;;
15454;SDS011;21057;51.024;7.540;2023-04-01T14:56:49;28.57;;;26.67;;
15454;SDS011;21057;51.024;7.540;2023-04-01T14:59:26;29.87;;;27.67;;
15454;SDS011;21057;51.024;7.540;2023-04-01T15:01:57;29.93;;;27.93;;
15454;SDS011;21057;51.024;7.540;2023-04-01T15:10:51;29.63;;;27.63;;
15454;SDS011;21057;51.024;7.540;2023-04-01T15:16:31;31.00;;;28.90;;
15454;SDS011;21057;51.024;7.540;2023-04-01T15:19:12;30.30;;;28.40;;
15454;SDS011;21057;51.024;7.540;2023-04-01T15:24:48;29.67;;;27.77;;
15454;SDS011;21057;51.024;7.540;2023-04-01T15:27:40;30.73;;;28.80;;
15454;SDS011;21057;51.024;7.540;2023-04-01T15:30:22;29.83;;;27.83;;
15454;SDS011;21057;51.024;7.540;2023-04-01T15:33:06;31.87;;;29.83;;
15454;SDS011;21057;51.024;7.540;2023-04-01T15:35:53;29.77;;;27.77;;
15454;SDS011;21057;51.024;7.540;2023-04-01T15:41:10;28.57;;;26.77;;
15454;SDS011;21057;51.024;7.540;2023-04-01T15:55:13;32.70;;;30.70;;
15454;SDS011;21057;51.024;7.540;2023-04-01T15:58:04;31.50;;;29.60;;
15454;SDS011;21057;51.024;7.540;2023-04-01T16:01:11;31.30;;;29.30;;
15454;SDS011;21057;51.024;7.540;2023-04-01T16:03:49;30.53;;;28.63;;
15454;SDS011;21057;51.024;7.540;2023-04-01T16:06:27;32.03;;;30.03;;
15454;SDS011;21057;51.024;7.540;2023-04-01T16:11:54;30.07;;;28.17;;
15454;SDS011;21057;51.024;7.540;2023-04-01T16:14:33;31.17;;;29.13;;
15454;SDS011;21057;51.024;7.540;2023-04-01T16:17:12;30.97;;;28.97;;
15454;SDS011;21057;51.024;7.540;2023-04-01T16:19:52;31.20;;;29.20;;
15454;SDS011;21057;51.024;7.540;2023-04-01T16:22:29;30.93;;;29.03;;
15454;SDS011;21057;51.024;7.540;2023-04-01T16:25:05;30.80;;;28.80;;
15454;SDS011;21057;51.024;7.540;2023-04-01T16:27:58;31.07;;;29.00;;
15454;SDS011;21057;51.024;7.540;2023-04-01T16:30:41;29.93;;;27.93;;
15454;SDS011;21057;51.024;7.540;2023-04-01T16:33:20;29.03;;;27.03;;
15454;SDS011;21057;51.024;7.540;2023-04-01T16:35:59;30.33;;;28.13;;
15454;SDS011;21057;51.024;7.540;2023-04-01T16:38:36;28.80;;;26.87;;
15454;SDS011;21057;51.024;7.540;2023-04-01T16:41:20;32.50;;;30.07;;
15454;SDS011;21057;51.024;7.540;2023-04-01T16:44:10;31.87;;;29.77;;
15454;SDS011;21057;51.024;7.540;2023-04-01T16:46:44;31.33;;;29.23;;
15454;SDS011;21057;51.024;7.540;2023-04-01T16:52:29;32.53;;;30.27;;
15454;SDS011;21057;51.024;7.540;2023-04-01T16:55:01;31.93;;;29.77;;
15454;SDS011;21057;51.024;7.540;2023-04-01T16:57:43;31.73;;;29.53;;
15454;SDS011;21057;51.024;7.540;2023-04-01T17:00:17;35.10;;;32.80;;
15454;SDS011;21057;51.024;7.540;2023-04-01T17:02:58;36.43;;;33.83;;
15454;SDS011;21057;51.024;7.540;2023-04-01T17:05:39;35.97;;;33.67;;
15454;SDS011;21057;51.024;7.540;2023-04-01T17:08:17;34.23;;;31.83;;
15454;SDS011;21057;51.024;7.540;2023-04-01T17:10:53;35.77;;;33.27;;
15454;SDS011;21057;51.024;7.540;2023-04-01T17:13:46;34.00;;;31.70;;
15454;SDS011;21057;51.024;7.540;2023-04-01T17:16:27;34.77;;;32.27;;
15454;SDS011;21057;51.024;7.540;2023-04-01T17:19:14;34.47;;;32.07;;
15454;SDS011;21057;51.024;7.540;2023-04-01T17:21:54;34.37;;;32.00;;
15454;SDS011;21057;51.024;7.540;2023-04-01T17:24:37;33.67;;;31.27;;
15454;SDS011;21057;51.024;7.540;2023-04-01T17:27:23;35.30;;;32.80;;
15454;SDS011;21057;51.024;7.540;2023-04-01T17:30:04;34.30;;;32.10;;
15454;SDS011;21057;51.024;7.540;2023-04-01T17:32:54;32.00;;;29.87;;
15454;SDS011;21057;51.024;7.540;2023-04-01T17:35:32;32.67;;;30.57;;
15454;SDS011;21057;51.024;7.540;2023-04-01T17:38:06;34.53;;;32.13;;
15454;SDS011;21057;51.024;7.540;2023-04-01T17:40:44;34.13;;;31.83;;
15454;SDS011;21057;51.024;7.540;2023-04-01T17:43:24;35.17;;;32.77;;
15454;SDS011;21057;51.024;7.540;2023-04-01T17:46:05;34.17;;;31.83;;
15454;SDS011;21057;51.024;7.540;2023-04-01T17:48:54;35.23;;;32.93;;
15454;SDS011;21057;51.024;7.540;2023-04-01T17:51:29;34.17;;;32.07;;
15454;SDS011;21057;51.024;7.540;2023-04-01T17:54:05;34.20;;;31.90;;
15454;SDS011;21057;51.024;7.540;2023-04-01T17:56:55;34.93;;;32.63;;
15454;SDS011;21057;51.024;7.540;2023-04-01T17:59:37;35.37;;;33.13;;
15454;SDS011;21057;51.024;7.540;2023-04-01T18:02:09;35.90;;;33.30;;
15454;SDS011;21057;51.024;7.540;2023-04-01T18:04:59;35.07;;;32.77;;
15454;SDS011;21057;51.024;7.540;2023-04-01T18:07:58;36.03;;;33.73;;
15454;SDS011;21057;51.024;7.540;2023-04-01T18:16:49;34.47;;;32.27;;